createdAt,value
2023-10-17T00:01:47.060Z,4.57
2023-10-17T00:04:16.676Z,3.75
2023-10-17T00:06:44.395Z,5.40
2023-10-17T00:09:13.430Z,4.20
2023-10-17T00:11:39.828Z,4.75
2023-10-17T00:14:06.260Z,4.15
2023-10-17T00:16:32.725Z,4.30
2023-10-17T00:18:59.398Z,5.10
2023-10-17T00:21:28.333Z,4.07
2023-10-17T00:23:58.937Z,4.15
2023-10-17T00:26:40.093Z,4.22
2023-10-17T00:29:15.538Z,5.47
2023-10-17T00:31:42.664Z,6.32
2023-10-17T00:34:17.498Z,6.80
2023-10-17T00:36:45.143Z,6.25
2023-10-17T00:39:13.927Z,5.30
2023-10-17T00:41:40.435Z,6.93
2023-10-17T00:44:13.566Z,5.60
2023-10-17T00:46:45.236Z,5.65
2023-10-17T00:49:13.989Z,4.50
2023-10-17T00:51:40.715Z,4.32
2023-10-17T00:54:10.137Z,4.15
2023-10-17T00:56:39.270Z,5.30
2023-10-17T00:59:05.713Z,6.70
2023-10-17T01:01:32.146Z,6.47
2023-10-17T01:04:02.346Z,5.22
2023-10-17T01:06:28.783Z,6.05
2023-10-17T01:08:55.195Z,5.35
2023-10-17T01:11:23.804Z,5.20
2023-10-17T01:13:53.369Z,3.95
2023-10-17T01:16:23.453Z,4.00
2023-10-17T01:18:49.911Z,6.90
2023-10-17T01:21:20.802Z,9.13
2023-10-17T01:23:48.645Z,4.63
2023-10-17T01:26:19.709Z,6.55
2023-10-17T01:28:49.776Z,4.70
2023-10-17T01:31:19.740Z,5.20
2023-10-17T01:33:49.992Z,4.72
2023-10-17T01:36:19.512Z,4.18
2023-10-17T01:38:48.532Z,5.45
2023-10-17T01:41:15.150Z,4.38
2023-10-17T01:43:44.388Z,6.35
2023-10-17T01:46:14.153Z,6.68
2023-10-17T01:48:48.609Z,4.20
2023-10-17T01:51:16.243Z,4.72
2023-10-17T01:53:42.980Z,4.88
2023-10-17T01:56:09.336Z,5.75
2023-10-17T01:58:47.140Z,3.55
2023-10-17T02:01:13.499Z,3.88
2023-10-17T02:03:39.999Z,4.20
2023-10-17T02:06:10.204Z,4.60
2023-10-17T02:08:36.606Z,4.90
2023-10-17T02:11:05.441Z,4.68
2023-10-17T02:13:31.836Z,5.05
2023-10-17T02:15:58.340Z,5.45
2023-10-17T02:18:27.427Z,5.47
2023-10-17T02:20:53.857Z,5.15
2023-10-17T02:23:20.308Z,3.75
2023-10-17T02:25:49.251Z,6.00
2023-10-17T02:28:15.771Z,6.13
2023-10-17T02:30:45.497Z,5.00
2023-10-17T02:33:12.018Z,5.70
2023-10-17T02:35:39.699Z,4.35
2023-10-17T02:38:06.772Z,4.93
2023-10-17T02:40:33.775Z,6.43
2023-10-17T02:43:00.168Z,3.60
2023-10-17T02:45:31.746Z,4.22
2023-10-17T02:48:01.208Z,4.63
2023-10-17T02:50:38.987Z,4.60
2023-10-17T02:53:09.059Z,3.83
2023-10-17T02:55:37.925Z,4.22
2023-10-17T02:58:04.482Z,5.50
2023-10-17T03:00:30.887Z,6.50
2023-10-17T03:02:57.457Z,4.90
2023-10-17T03:05:23.938Z,8.18
2023-10-17T03:07:50.312Z,5.57
2023-10-17T03:10:24.828Z,6.85
2023-10-17T03:12:53.686Z,7.65
2023-10-17T03:15:20.175Z,7.00
2023-10-17T03:17:46.716Z,6.70
2023-10-17T03:20:17.422Z,7.28
2023-10-17T03:25:14.838Z,4.70
2023-10-17T03:27:43.698Z,7.78
2023-10-17T03:30:10.558Z,7.78
2023-10-17T03:32:39.921Z,5.50
2023-10-17T03:35:07.043Z,6.32
2023-10-17T03:37:36.735Z,6.00
2023-10-17T03:40:05.757Z,4.88
2023-10-17T03:42:32.162Z,6.25
2023-10-17T03:45:02.363Z,7.18
2023-10-17T03:47:31.497Z,5.28
2023-10-17T03:49:57.915Z,5.88
2023-10-17T03:52:24.378Z,7.90
2023-10-17T03:54:52.139Z,6.40
2023-10-17T03:57:20.627Z,6.55
2023-10-17T03:59:47.571Z,5.53
2023-10-17T04:02:15.077Z,10.13
2023-10-17T04:04:47.650Z,5.07
2023-10-17T04:07:14.327Z,5.80
2023-10-17T04:09:40.756Z,7.15
2023-10-17T04:12:07.223Z,7.43
2023-10-17T04:14:33.669Z,5.63
2023-10-17T04:17:02.939Z,6.50
2023-10-17T04:19:32.504Z,6.75
2023-10-17T04:22:09.885Z,5.97
2023-10-17T04:24:43.185Z,6.00
2023-10-17T04:27:09.619Z,6.13
2023-10-17T04:29:36.114Z,5.63
2023-10-17T04:32:05.920Z,6.18
2023-10-17T04:34:35.388Z,6.05
2023-10-17T04:37:04.421Z,6.15
2023-10-17T04:39:30.846Z,5.60
2023-10-17T04:41:57.495Z,5.60
2023-10-17T04:44:27.379Z,7.43
2023-10-17T04:46:56.147Z,7.88
2023-10-17T04:49:26.298Z,8.25
2023-10-17T04:51:55.328Z,7.60
2023-10-17T04:54:22.029Z,6.28
2023-10-17T04:56:52.609Z,7.78
2023-10-17T05:01:45.635Z,7.30
2023-10-17T05:04:12.557Z,6.75
2023-10-17T05:06:39.048Z,6.63
2023-10-17T05:09:05.446Z,11.02
2023-10-17T05:11:31.880Z,9.05
2023-10-17T05:14:00.728Z,9.45
2023-10-17T05:16:28.766Z,5.30
2023-10-17T05:18:55.423Z,6.30
2023-10-17T05:21:21.969Z,7.90
2023-10-17T05:23:48.452Z,6.43
2023-10-17T05:26:14.930Z,5.68
2023-10-17T05:28:49.507Z,6.10
2023-10-17T05:31:25.771Z,7.05
2023-10-17T05:33:52.662Z,6.13
2023-10-17T05:36:19.176Z,7.32
2023-10-17T05:38:45.672Z,8.55
2023-10-17T05:41:21.310Z,6.78
2023-10-17T05:43:49.545Z,9.05
2023-10-17T05:46:15.985Z,6.07
2023-10-17T05:48:42.547Z,8.05
2023-10-17T05:51:10.589Z,7.20
2023-10-17T05:53:36.975Z,7.15
2023-10-17T05:56:05.653Z,7.90
2023-10-17T05:58:32.236Z,6.85
2023-10-17T06:01:03.917Z,6.78
2023-10-17T06:03:30.627Z,5.78
2023-10-17T06:05:57.583Z,9.30
2023-10-17T06:08:23.936Z,10.32
2023-10-17T06:10:59.686Z,10.40
2023-10-17T06:13:27.367Z,7.90
2023-10-17T06:15:53.935Z,7.45
2023-10-17T06:18:20.449Z,7.20
2023-10-17T06:20:46.850Z,10.55
2023-10-17T06:23:13.252Z,8.98
2023-10-17T06:25:39.675Z,9.38
2023-10-17T06:28:08.586Z,7.95
2023-10-17T06:30:35.020Z,9.98
2023-10-17T06:33:01.995Z,10.95
2023-10-17T06:35:29.802Z,9.40
2023-10-17T06:37:56.318Z,10.82
2023-10-17T06:40:22.961Z,9.95
2023-10-17T06:42:51.884Z,10.30
2023-10-17T06:45:20.894Z,8.70
2023-10-17T06:47:47.328Z,8.45
2023-10-17T06:50:19.194Z,10.75
2023-10-17T06:52:48.660Z,10.57
2023-10-17T06:55:16.601Z,7.63
2023-10-17T06:57:43.102Z,10.02
2023-10-17T07:00:10.233Z,13.93
2023-10-17T07:02:36.878Z,11.23
2023-10-17T07:05:03.541Z,13.23
2023-10-17T07:07:30.077Z,12.68
2023-10-17T07:09:56.487Z,13.10
2023-10-17T07:12:23.177Z,11.82
2023-10-17T07:14:51.742Z,9.32
2023-10-17T07:17:18.270Z,11.60
2023-10-17T07:19:45.499Z,12.60
2023-10-17T07:22:11.967Z,10.82
2023-10-17T07:24:39.067Z,13.40
2023-10-17T07:27:07.801Z,7.95
2023-10-17T07:29:34.242Z,9.10
2023-10-17T07:32:01.547Z,15.77
2023-10-17T07:34:28.375Z,9.30
2023-10-17T07:36:55.388Z,9.65
2023-10-17T07:39:25.808Z,9.32
2023-10-17T07:41:56.278Z,10.70
2023-10-17T07:44:27.541Z,8.23
2023-10-17T07:46:56.608Z,9.93
2023-10-17T07:49:23.018Z,10.05
2023-10-17T07:51:49.447Z,8.25
2023-10-17T07:54:15.836Z,11.50
2023-10-17T07:56:42.213Z,7.65
2023-10-17T07:59:08.576Z,8.95
2023-10-17T08:01:35.754Z,9.70
2023-10-17T08:04:02.375Z,8.52
2023-10-17T08:06:28.839Z,8.27
2023-10-17T08:08:57.666Z,7.93
2023-10-17T08:11:24.082Z,11.43
2023-10-17T08:13:50.552Z,8.38
2023-10-17T08:16:16.927Z,10.45
2023-10-17T08:18:43.484Z,7.00
2023-10-17T08:21:15.674Z,6.65
2023-10-17T08:23:42.283Z,6.13
2023-10-17T08:26:08.744Z,8.48
2023-10-17T08:28:35.193Z,7.57
2023-10-17T08:31:12.231Z,10.10
2023-10-17T08:33:38.803Z,8.45
2023-10-17T08:36:11.070Z,7.03
2023-10-17T08:38:38.034Z,6.22
2023-10-17T08:41:08.143Z,5.88
2023-10-17T08:43:35.998Z,5.63
2023-10-17T08:46:12.229Z,7.32
2023-10-17T08:48:41.928Z,6.88
2023-10-17T08:51:28.044Z,7.45
2023-10-17T08:53:55.828Z,7.70
2023-10-17T08:56:22.642Z,5.88
2023-10-17T08:58:52.825Z,8.30
2023-10-17T09:01:19.321Z,7.55
2023-10-17T09:03:45.929Z,6.57
2023-10-17T09:06:12.396Z,5.93
2023-10-17T09:08:38.943Z,7.93
2023-10-17T09:11:06.164Z,6.75
2023-10-17T09:13:37.053Z,6.80
2023-10-17T09:16:09.662Z,7.47
2023-10-17T09:18:36.119Z,6.20
2023-10-17T09:21:15.160Z,5.18
2023-10-17T09:23:41.802Z,6.97
2023-10-17T09:26:10.901Z,5.97
2023-10-17T09:28:38.432Z,8.50
2023-10-17T09:31:11.781Z,8.57
2023-10-17T09:33:43.229Z,8.88
2023-10-17T09:36:11.578Z,7.70
2023-10-17T09:38:43.605Z,5.68
2023-10-17T09:41:18.126Z,7.90
2023-10-17T09:43:46.184Z,7.18
2023-10-17T09:46:15.515Z,5.93
2023-10-17T09:48:46.389Z,9.70
2023-10-17T09:51:21.399Z,8.57
2023-10-17T09:53:55.594Z,8.68
2023-10-17T09:56:35.569Z,5.95
2023-10-17T09:59:14.837Z,7.65
2023-10-17T10:01:43.633Z,7.70
2023-10-17T10:04:10.301Z,8.15
2023-10-17T10:06:39.198Z,6.95
2023-10-17T10:09:05.708Z,8.05
2023-10-17T10:11:50.706Z,6.60
2023-10-17T10:14:35.923Z,6.53
2023-10-17T10:17:02.666Z,6.20
2023-10-17T10:19:56.659Z,12.52
2023-10-17T10:22:23.085Z,6.13
2023-10-17T10:25:06.370Z,6.35
2023-10-17T10:27:34.096Z,6.43
2023-10-17T10:30:39.024Z,8.18
2023-10-17T10:33:07.813Z,5.03
2023-10-17T10:35:34.334Z,7.93
2023-10-17T10:38:06.129Z,7.03
2023-10-17T10:40:36.633Z,5.53
2023-10-17T10:43:03.044Z,6.07
2023-10-17T10:45:42.644Z,4.97
2023-10-17T10:48:16.611Z,9.32
2023-10-17T10:50:50.410Z,6.05
2023-10-17T10:53:27.519Z,3.58
2023-10-17T10:56:01.268Z,5.82
2023-10-17T10:58:29.851Z,4.18
2023-10-17T11:01:02.605Z,6.28
2023-10-17T11:03:30.929Z,3.85
2023-10-17T11:06:00.001Z,4.40
2023-10-17T11:08:35.202Z,3.20
2023-10-17T11:11:01.602Z,4.57
2023-10-17T11:13:34.166Z,4.13
2023-10-17T11:16:01.396Z,3.90
2023-10-17T11:18:28.517Z,3.78
2023-10-17T11:20:55.875Z,3.13
2023-10-17T11:23:24.319Z,5.00
2023-10-17T11:25:50.902Z,6.03
2023-10-17T11:28:19.002Z,3.15
2023-10-17T11:30:45.829Z,3.10
2023-10-17T11:33:14.097Z,4.53
2023-10-17T11:35:54.280Z,3.38
2023-10-17T11:38:41.951Z,4.05
2023-10-17T11:41:11.072Z,5.25
2023-10-17T11:43:39.417Z,5.15
2023-10-17T11:46:05.882Z,5.07
2023-10-17T11:48:33.750Z,3.15
2023-10-17T11:51:18.135Z,4.45
2023-10-17T11:54:30.012Z,2.90
2023-10-17T11:57:03.648Z,3.92
2023-10-17T11:59:30.092Z,4.18
2023-10-17T12:01:56.656Z,5.20
2023-10-17T12:04:25.714Z,3.90
2023-10-17T12:06:52.209Z,2.60
2023-10-17T12:09:18.601Z,4.30
2023-10-17T12:11:56.861Z,4.88
2023-10-17T12:14:23.442Z,4.70
2023-10-17T12:16:56.021Z,3.58
2023-10-17T12:19:27.578Z,2.85
2023-10-17T12:21:55.856Z,4.47
2023-10-17T12:24:28.728Z,3.30
2023-10-17T12:26:58.495Z,4.18
2023-10-17T12:29:36.524Z,3.25
2023-10-17T12:32:04.869Z,2.45
2023-10-17T12:34:31.314Z,3.30
2023-10-17T12:36:57.758Z,2.38
2023-10-17T12:39:24.585Z,4.30
2023-10-17T12:41:58.507Z,5.50
2023-10-17T12:44:27.537Z,2.72
2023-10-17T12:46:57.903Z,4.18
2023-10-17T12:49:25.743Z,3.55
2023-10-17T12:51:52.489Z,4.03
2023-10-17T12:54:22.015Z,2.65
2023-10-17T12:56:50.883Z,3.28
2023-10-17T12:59:23.041Z,4.28
2023-10-17T13:01:51.986Z,4.07
2023-10-17T13:04:18.519Z,2.35
2023-10-17T13:06:48.383Z,3.33
2023-10-17T13:09:14.958Z,2.15
2023-10-17T13:11:43.542Z,4.38
2023-10-17T13:14:12.355Z,3.20
2023-10-17T13:16:38.928Z,3.13
2023-10-17T13:19:05.696Z,3.35
2023-10-17T13:21:32.286Z,4.00
2023-10-17T13:23:59.247Z,2.58
2023-10-17T13:26:26.067Z,2.53
2023-10-17T13:28:52.493Z,3.25
2023-10-17T13:31:19.020Z,3.60
2023-10-17T13:33:48.941Z,2.88
2023-10-17T13:36:16.668Z,3.20
2023-10-17T13:38:44.102Z,3.15
2023-10-17T13:41:14.098Z,3.28
2023-10-17T13:46:14.123Z,1.98
2023-10-17T13:48:44.979Z,3.15
2023-10-17T13:51:13.757Z,2.92
2023-10-17T13:53:45.644Z,3.42
2023-10-17T13:56:15.862Z,3.33
2023-10-17T13:58:42.529Z,5.30
2023-10-17T14:01:13.792Z,3.47
2023-10-17T14:03:42.190Z,3.72
2023-10-17T14:06:09.966Z,5.40
2023-10-17T14:08:37.328Z,3.17
2023-10-17T14:11:03.878Z,2.63
2023-10-17T14:13:30.379Z,3.00
2023-10-17T14:15:57.000Z,4.85
2023-10-17T14:18:23.423Z,4.03
2023-10-17T14:20:52.722Z,3.45
2023-10-17T14:23:19.099Z,2.63
2023-10-17T14:25:54.582Z,3.33
2023-10-17T14:28:21.257Z,4.03
2023-10-17T14:30:51.831Z,3.08
2023-10-17T14:33:18.450Z,4.57
2023-10-17T14:35:45.384Z,3.80
2023-10-17T14:38:12.322Z,6.32
2023-10-17T14:40:38.788Z,4.18
2023-10-17T14:43:05.722Z,4.25
2023-10-17T14:45:45.113Z,3.60
2023-10-17T14:48:12.246Z,5.43
2023-10-17T14:50:41.305Z,4.53
2023-10-17T14:53:10.401Z,3.88
2023-10-17T14:55:39.782Z,3.47
2023-10-17T14:58:07.556Z,3.42
2023-10-17T15:00:33.938Z,3.13
2023-10-17T15:03:03.944Z,4.72
2023-10-17T15:05:30.492Z,6.45
2023-10-17T15:07:57.836Z,5.70
2023-10-17T15:10:24.296Z,4.03
2023-10-17T15:12:51.943Z,2.97
2023-10-17T15:15:22.696Z,4.28
2023-10-17T15:17:52.055Z,6.45
2023-10-17T15:20:18.537Z,9.30
2023-10-17T15:22:46.034Z,4.20
2023-10-17T15:25:17.979Z,5.97
2023-10-17T15:27:47.161Z,9.70
2023-10-17T15:30:26.273Z,4.05
2023-10-17T15:32:57.236Z,5.13
2023-10-17T15:35:23.702Z,2.88
2023-10-17T15:37:50.152Z,3.63
2023-10-17T15:40:18.359Z,2.80
2023-10-17T15:42:47.972Z,5.15
2023-10-17T15:45:18.807Z,4.07
2023-10-17T15:47:52.043Z,3.22
2023-10-17T15:50:21.122Z,3.28
2023-10-17T15:52:51.393Z,3.65
2023-10-17T15:55:18.844Z,3.10
2023-10-17T15:57:47.993Z,2.92
2023-10-17T16:00:14.667Z,3.92
2023-10-17T16:02:41.704Z,2.88
2023-10-17T16:05:08.524Z,2.72
2023-10-17T16:07:34.877Z,5.05
2023-10-17T16:10:12.768Z,3.38
2023-10-17T16:12:39.228Z,3.90
2023-10-17T16:15:06.225Z,3.38
2023-10-17T16:17:32.770Z,4.60
2023-10-17T16:20:01.754Z,2.85
2023-10-17T16:22:30.263Z,3.47
2023-10-17T16:24:56.744Z,5.40
2023-10-17T16:27:23.169Z,5.47
2023-10-17T16:29:56.944Z,5.03
2023-10-17T16:32:23.598Z,4.80
2023-10-17T16:34:50.039Z,5.78
2023-10-17T16:37:16.532Z,3.25
2023-10-17T16:39:45.425Z,4.35
2023-10-17T16:42:11.939Z,3.42
2023-10-17T16:44:38.349Z,4.90
2023-10-17T16:47:08.514Z,5.35
2023-10-17T16:49:35.178Z,3.75
2023-10-17T16:52:01.639Z,3.40
2023-10-17T16:54:30.356Z,3.75
2023-10-17T16:57:04.109Z,5.38
2023-10-17T16:59:30.954Z,3.25
2023-10-17T17:02:01.574Z,3.67
2023-10-17T17:04:35.194Z,5.80
2023-10-17T17:07:04.780Z,4.32
2023-10-17T17:09:33.380Z,3.95
2023-10-17T17:11:59.821Z,3.58
2023-10-17T17:14:26.432Z,4.78
2023-10-17T17:16:53.464Z,3.55
2023-10-17T17:19:20.720Z,6.22
2023-10-17T17:21:54.084Z,3.70
2023-10-17T17:24:21.008Z,3.58
2023-10-17T17:26:55.368Z,4.93
2023-10-17T17:29:22.945Z,5.05
2023-10-17T17:31:49.898Z,3.92
2023-10-17T17:34:21.038Z,5.13
2023-10-17T17:36:47.533Z,4.00
2023-10-17T17:39:13.955Z,4.82
2023-10-17T17:41:40.451Z,4.28
2023-10-17T17:44:14.897Z,3.15
2023-10-17T17:46:41.512Z,3.90
2023-10-17T17:49:15.398Z,3.83
2023-10-17T17:51:41.944Z,7.43
2023-10-17T17:54:10.679Z,4.68
2023-10-17T17:56:39.706Z,4.55
2023-10-17T17:59:06.131Z,4.82
2023-10-17T18:01:33.626Z,4.28
2023-10-17T18:04:13.810Z,6.18
2023-10-17T18:06:45.741Z,4.78
2023-10-17T18:09:12.212Z,6.45
2023-10-17T18:11:47.470Z,5.10
2023-10-17T18:14:13.867Z,3.15
2023-10-17T18:16:40.340Z,5.35
2023-10-17T18:19:09.231Z,3.58
2023-10-17T18:21:36.099Z,6.25
2023-10-17T18:24:03.119Z,4.07
2023-10-17T18:26:31.700Z,4.40
2023-10-17T18:28:58.085Z,4.40
2023-10-17T18:31:24.554Z,3.80
2023-10-17T18:33:51.081Z,6.40
2023-10-17T18:36:19.772Z,4.13
2023-10-17T18:38:46.150Z,4.43
2023-10-17T18:41:13.603Z,6.03
2023-10-17T18:43:41.825Z,4.68
2023-10-17T18:46:08.585Z,5.50
2023-10-17T18:48:43.093Z,5.57
2023-10-17T18:51:09.619Z,5.30
2023-10-17T18:53:39.130Z,4.97
2023-10-17T18:56:07.873Z,5.38
2023-10-17T18:58:37.877Z,7.10
2023-10-17T19:01:17.771Z,4.65
2023-10-17T19:03:45.215Z,6.13
2023-10-17T19:06:14.817Z,6.10
2023-10-17T19:08:42.131Z,7.65
2023-10-17T19:11:08.622Z,4.18
2023-10-17T19:13:35.157Z,6.20
2023-10-17T19:16:05.138Z,5.60
2023-10-17T19:18:31.560Z,4.75
2023-10-17T19:20:58.247Z,7.47
2023-10-17T19:23:24.772Z,6.15
2023-10-17T19:25:51.223Z,5.63
2023-10-17T19:28:17.746Z,5.07
2023-10-17T19:30:47.022Z,7.38
2023-10-17T19:33:16.732Z,7.00
2023-10-17T19:35:43.143Z,7.07
2023-10-17T19:38:09.550Z,8.02
2023-10-17T19:40:37.771Z,6.75
2023-10-17T19:43:06.359Z,9.68
2023-10-17T19:45:34.228Z,7.63
2023-10-17T19:48:02.196Z,6.03
2023-10-17T19:50:29.968Z,6.07
2023-10-17T19:52:58.848Z,8.00
2023-10-17T19:55:26.834Z,8.85
2023-10-17T19:57:54.451Z,10.10
2023-10-17T20:00:21.085Z,8.27
2023-10-17T20:02:49.109Z,7.05
2023-10-17T20:05:19.731Z,6.38
2023-10-17T20:10:13.075Z,9.07
2023-10-17T20:12:44.559Z,8.73
2023-10-17T20:15:13.841Z,8.18
2023-10-17T20:17:40.302Z,9.20
2023-10-17T20:20:08.062Z,9.05
2023-10-17T20:22:38.726Z,8.40
2023-10-17T20:25:05.511Z,8.02
2023-10-17T20:27:37.185Z,8.60
2023-10-17T20:30:04.746Z,9.75
2023-10-17T20:32:36.347Z,8.82
2023-10-17T20:35:02.890Z,8.45
2023-10-17T20:37:30.312Z,8.50
2023-10-17T20:39:57.578Z,7.63
2023-10-17T20:42:24.128Z,8.45
2023-10-17T20:44:50.539Z,10.63
2023-10-17T20:47:16.977Z,11.77
2023-10-17T20:49:43.416Z,9.63
2023-10-17T20:52:09.900Z,8.10
2023-10-17T20:54:39.293Z,10.73
2023-10-17T20:57:05.858Z,12.10
2023-10-17T20:59:35.024Z,10.27
2023-10-17T21:02:04.109Z,11.48
2023-10-17T21:04:32.836Z,11.77
2023-10-17T21:07:01.404Z,9.85
2023-10-17T21:09:28.243Z,9.55
2023-10-17T21:11:57.039Z,10.48
2023-10-17T21:14:23.397Z,9.40
2023-10-17T21:16:49.867Z,9.52
2023-10-17T21:19:16.421Z,9.30
2023-10-17T21:21:42.930Z,9.85
2023-10-17T21:24:09.627Z,8.82
2023-10-17T21:26:36.011Z,12.25
2023-10-17T21:29:04.864Z,8.65
2023-10-17T21:31:37.674Z,10.50
2023-10-17T21:34:06.283Z,9.80
2023-10-17T21:36:32.887Z,9.80
2023-10-17T21:39:01.889Z,10.32
2023-10-17T21:41:28.295Z,8.68
2023-10-17T21:43:57.299Z,12.95
2023-10-17T21:46:28.677Z,9.40
2023-10-17T21:48:57.591Z,10.55
2023-10-17T21:51:24.039Z,9.00
2023-10-17T21:53:50.430Z,9.15
2023-10-17T21:56:16.921Z,9.38
2023-10-17T21:58:48.428Z,10.63
2023-10-17T22:01:20.243Z,14.93
2023-10-17T22:03:50.935Z,10.45
2023-10-17T22:06:17.705Z,10.50
2023-10-17T22:08:46.329Z,9.02
2023-10-17T22:11:13.699Z,9.30
2023-10-17T22:13:45.102Z,12.20
2023-10-17T22:16:11.762Z,9.77
2023-10-17T22:18:41.921Z,12.02
2023-10-17T22:21:10.799Z,11.55
2023-10-17T22:23:43.086Z,13.15
2023-10-17T22:26:09.626Z,12.55
2023-10-17T22:28:37.933Z,11.00
2023-10-17T22:31:08.568Z,10.85
2023-10-17T22:33:35.443Z,13.13
2023-10-17T22:36:01.830Z,12.18
2023-10-17T22:38:28.275Z,11.35
2023-10-17T22:40:54.822Z,11.98
2023-10-17T22:43:26.828Z,9.18
2023-10-17T22:45:54.529Z,17.05
2023-10-17T22:48:20.983Z,12.85
2023-10-17T22:50:47.368Z,11.18
2023-10-17T22:53:18.057Z,12.50
2023-10-17T22:58:10.822Z,12.05
2023-10-17T23:00:37.300Z,14.45
2023-10-17T23:03:11.778Z,12.93
2023-10-17T23:05:45.766Z,10.65
2023-10-17T23:08:14.945Z,11.23
2023-10-17T23:10:41.638Z,9.68
2023-10-17T23:13:08.073Z,10.38
2023-10-17T23:15:34.570Z,11.32
2023-10-17T23:18:01.210Z,12.57
2023-10-17T23:20:28.061Z,14.65
2023-10-17T23:22:54.483Z,13.77
2023-10-17T23:25:24.836Z,11.38
2023-10-17T23:27:51.348Z,10.55
2023-10-17T23:30:18.406Z,13.48
2023-10-17T23:32:45.308Z,12.68
2023-10-17T23:35:14.438Z,13.05
2023-10-17T23:37:42.457Z,12.43
2023-10-17T23:40:10.984Z,10.52
2023-10-17T23:42:40.484Z,11.77
2023-10-17T23:45:07.765Z,12.65
2023-10-17T23:47:35.488Z,13.82
2023-10-17T23:50:05.889Z,12.73
2023-10-17T23:52:38.148Z,11.25
2023-10-17T23:55:04.914Z,11.30
2023-10-17T23:57:33.676Z,11.98
